sensor_id;sensor_type;location;lat;lon;timestamp;P1;durP1;ratioP1;P2;durP2;ratioP2
4409;SDS011;2218;51.408;7.208;2023-10-13T00:01:08;1.00;;;1.00;;
4409;SDS011;2218;51.408;7.208;2023-10-13T00:03:37;1.17;;;1.07;;
4409;SDS011;2218;51.408;7.208;2023-10-13T00:06:05;1.10;;;1.03;;
4409;SDS011;2218;51.408;7.208;2023-10-13T00:08:34;1.40;;;1.30;;
4409;SDS011;2218;51.408;7.208;2023-10-13T00:11:03;1.30;;;1.07;;
4409;SDS011;2218;51.408;7.208;2023-10-13T00:13:32;1.10;;;1.00;;
4409;SDS011;2218;51.408;7.208;2023-10-13T00:16:07;1.27;;;1.17;;
4409;SDS011;2218;51.408;7.208;2023-10-13T00:18:41;1.03;;;1.03;;
4409;SDS011;2218;51.408;7.208;2023-10-13T00:21:09;1.10;;;1.00;;
4409;SDS011;2218;51.408;7.208;2023-10-13T00:23:44;1.30;;;1.20;;
4409;SDS011;2218;51.408;7.208;2023-10-13T00:26:18;1.10;;;1.00;;
4409;SDS011;2218;51.408;7.208;2023-10-13T00:28:52;0.90;;;0.90;;
4409;SDS011;2218;51.408;7.208;2023-10-13T00:31:34;1.10;;;1.00;;
4409;SDS011;2218;51.408;7.208;2023-10-13T00:34:04;1.00;;;0.90;;
4409;SDS011;2218;51.408;7.208;2023-10-13T00:36:36;1.30;;;1.20;;
4409;SDS011;2218;51.408;7.208;2023-10-13T00:39:14;1.10;;;1.00;;
4409;SDS011;2218;51.408;7.208;2023-10-13T00:41:42;1.13;;;1.10;;
4409;SDS011;2218;51.408;7.208;2023-10-13T00:44:25;1.63;;;1.33;;
4409;SDS011;2218;51.408;7.208;2023-10-13T00:46:53;1.40;;;1.30;;
4409;SDS011;2218;51.408;7.208;2023-10-13T00:49:22;2.13;;;1.30;;
4409;SDS011;2218;51.408;7.208;2023-10-13T00:51:49;1.40;;;1.30;;
4409;SDS011;2218;51.408;7.208;2023-10-13T00:54:16;2.70;;;0.90;;
4409;SDS011;2218;51.408;7.208;2023-10-13T00:56:52;1.20;;;1.10;;
4409;SDS011;2218;51.408;7.208;2023-10-13T00:59:31;1.30;;;1.20;;
4409;SDS011;2218;51.408;7.208;2023-10-13T01:02:07;1.20;;;1.10;;
4409;SDS011;2218;51.408;7.208;2023-10-13T01:04:48;1.27;;;1.17;;
4409;SDS011;2218;51.408;7.208;2023-10-13T01:07:15;1.50;;;1.40;;
4409;SDS011;2218;51.408;7.208;2023-10-13T01:09:41;1.40;;;1.30;;
4409;SDS011;2218;51.408;7.208;2023-10-13T01:12:08;1.10;;;1.07;;
4409;SDS011;2218;51.408;7.208;2023-10-13T01:14:36;1.40;;;1.30;;
4409;SDS011;2218;51.408;7.208;2023-10-13T01:17:03;1.10;;;1.10;;
4409;SDS011;2218;51.408;7.208;2023-10-13T01:19:29;1.10;;;1.07;;
4409;SDS011;2218;51.408;7.208;2023-10-13T01:21:56;1.00;;;1.00;;
4409;SDS011;2218;51.408;7.208;2023-10-13T01:24:28;1.20;;;1.10;;
4409;SDS011;2218;51.408;7.208;2023-10-13T01:27:00;1.00;;;1.00;;
4409;SDS011;2218;51.408;7.208;2023-10-13T01:29:42;1.00;;;1.00;;
4409;SDS011;2218;51.408;7.208;2023-10-13T01:32:13;1.00;;;0.97;;
4409;SDS011;2218;51.408;7.208;2023-10-13T01:34:39;0.97;;;0.97;;
4409;SDS011;2218;51.408;7.208;2023-10-13T01:37:11;1.27;;;1.17;;
4409;SDS011;2218;51.408;7.208;2023-10-13T01:39:38;0.93;;;0.83;;
4409;SDS011;2218;51.408;7.208;2023-10-13T01:42:05;1.20;;;1.10;;
4409;SDS011;2218;51.408;7.208;2023-10-13T01:44:31;1.27;;;1.17;;
4409;SDS011;2218;51.408;7.208;2023-10-13T01:46:58;1.20;;;1.10;;
4409;SDS011;2218;51.408;7.208;2023-10-13T01:49:31;0.90;;;0.90;;
4409;SDS011;2218;51.408;7.208;2023-10-13T01:52:06;1.00;;;1.00;;
4409;SDS011;2218;51.408;7.208;2023-10-13T01:54:36;1.20;;;1.10;;
4409;SDS011;2218;51.408;7.208;2023-10-13T01:57:06;1.17;;;1.07;;
4409;SDS011;2218;51.408;7.208;2023-10-13T01:59:32;1.57;;;1.00;;
4409;SDS011;2218;51.408;7.208;2023-10-13T02:02:03;1.37;;;1.13;;
4409;SDS011;2218;51.408;7.208;2023-10-13T02:04:30;1.20;;;1.10;;
4409;SDS011;2218;51.408;7.208;2023-10-13T02:07:02;1.10;;;1.00;;
4409;SDS011;2218;51.408;7.208;2023-10-13T02:09:27;1.00;;;1.00;;
4409;SDS011;2218;51.408;7.208;2023-10-13T02:11:56;1.10;;;1.00;;
4409;SDS011;2218;51.408;7.208;2023-10-13T02:14:22;1.20;;;1.10;;
4409;SDS011;2218;51.408;7.208;2023-10-13T02:16:50;0.83;;;0.83;;
4409;SDS011;2218;51.408;7.208;2023-10-13T02:19:21;1.07;;;0.97;;
4409;SDS011;2218;51.408;7.208;2023-10-13T02:21:50;1.10;;;1.03;;
4409;SDS011;2218;51.408;7.208;2023-10-13T02:24:23;1.23;;;1.13;;
4409;SDS011;2218;51.408;7.208;2023-10-13T02:26:56;1.30;;;1.20;;
4409;SDS011;2218;51.408;7.208;2023-10-13T02:29:28;1.20;;;1.10;;
4409;SDS011;2218;51.408;7.208;2023-10-13T02:31:54;1.20;;;1.10;;
4409;SDS011;2218;51.408;7.208;2023-10-13T02:34:21;0.80;;;0.80;;
4409;SDS011;2218;51.408;7.208;2023-10-13T02:36:49;1.17;;;1.07;;
4409;SDS011;2218;51.408;7.208;2023-10-13T02:39:15;1.03;;;1.03;;
4409;SDS011;2218;51.408;7.208;2023-10-13T02:41:49;2.10;;;1.20;;
4409;SDS011;2218;51.408;7.208;2023-10-13T02:44:17;1.00;;;1.00;;
4409;SDS011;2218;51.408;7.208;2023-10-13T02:46:52;1.10;;;1.00;;
4409;SDS011;2218;51.408;7.208;2023-10-13T02:49:21;1.03;;;1.03;;
4409;SDS011;2218;51.408;7.208;2023-10-13T02:51:51;0.83;;;0.83;;
4409;SDS011;2218;51.408;7.208;2023-10-13T02:54:18;1.23;;;1.13;;
4409;SDS011;2218;51.408;7.208;2023-10-13T02:56:45;0.97;;;0.97;;
4409;SDS011;2218;51.408;7.208;2023-10-13T02:59:14;1.00;;;0.90;;
4409;SDS011;2218;51.408;7.208;2023-10-13T03:01:46;1.20;;;1.10;;
4409;SDS011;2218;51.408;7.208;2023-10-13T03:04:12;1.00;;;1.00;;
4409;SDS011;2218;51.408;7.208;2023-10-13T03:06:39;1.00;;;1.00;;
4409;SDS011;2218;51.408;7.208;2023-10-13T03:09:07;1.23;;;1.13;;
4409;SDS011;2218;51.408;7.208;2023-10-13T03:11:43;1.40;;;1.30;;
4409;SDS011;2218;51.408;7.208;2023-10-13T03:14:13;1.10;;;1.00;;
4409;SDS011;2218;51.408;7.208;2023-10-13T03:16:51;1.10;;;1.10;;
4409;SDS011;2218;51.408;7.208;2023-10-13T03:19:17;1.10;;;1.00;;
4409;SDS011;2218;51.408;7.208;2023-10-13T03:21:45;1.27;;;1.03;;
4409;SDS011;2218;51.408;7.208;2023-10-13T03:24:20;0.90;;;0.90;;
4409;SDS011;2218;51.408;7.208;2023-10-13T03:26:58;1.10;;;1.10;;
4409;SDS011;2218;51.408;7.208;2023-10-13T03:29:24;0.90;;;0.90;;
4409;SDS011;2218;51.408;7.208;2023-10-13T03:31:57;0.80;;;0.80;;
4409;SDS011;2218;51.408;7.208;2023-10-13T03:34:32;1.07;;;0.97;;
4409;SDS011;2218;51.408;7.208;2023-10-13T03:37:00;1.17;;;1.07;;
4409;SDS011;2218;51.408;7.208;2023-10-13T03:39:37;0.90;;;0.90;;
4409;SDS011;2218;51.408;7.208;2023-10-13T03:42:09;1.40;;;1.30;;
4409;SDS011;2218;51.408;7.208;2023-10-13T03:44:43;1.10;;;1.00;;
4409;SDS011;2218;51.408;7.208;2023-10-13T03:47:13;1.00;;;0.90;;
4409;SDS011;2218;51.408;7.208;2023-10-13T03:49:52;1.00;;;1.00;;
4409;SDS011;2218;51.408;7.208;2023-10-13T03:52:39;1.20;;;1.10;;
4409;SDS011;2218;51.408;7.208;2023-10-13T03:55:07;1.30;;;1.20;;
4409;SDS011;2218;51.408;7.208;2023-10-13T03:57:42;1.20;;;1.10;;
4409;SDS011;2218;51.408;7.208;2023-10-13T04:00:11;1.30;;;1.20;;
4409;SDS011;2218;51.408;7.208;2023-10-13T04:02:48;1.30;;;1.20;;
4409;SDS011;2218;51.408;7.208;2023-10-13T04:05:20;1.10;;;1.00;;
4409;SDS011;2218;51.408;7.208;2023-10-13T04:08:01;1.00;;;0.90;;
4409;SDS011;2218;51.408;7.208;2023-10-13T04:10:47;1.17;;;1.07;;
4409;SDS011;2218;51.408;7.208;2023-10-13T04:13:36;1.00;;;1.00;;
4409;SDS011;2218;51.408;7.208;2023-10-13T04:16:29;0.90;;;0.90;;
4409;SDS011;2218;51.408;7.208;2023-10-13T04:19:17;1.00;;;1.00;;
4409;SDS011;2218;51.408;7.208;2023-10-13T04:21:54;1.13;;;1.03;;
4409;SDS011;2218;51.408;7.208;2023-10-13T04:24:25;1.00;;;0.90;;
4409;SDS011;2218;51.408;7.208;2023-10-13T04:27:10;1.30;;;1.20;;
4409;SDS011;2218;51.408;7.208;2023-10-13T04:30:05;1.10;;;1.10;;
4409;SDS011;2218;51.408;7.208;2023-10-13T04:32:36;1.50;;;1.40;;
4409;SDS011;2218;51.408;7.208;2023-10-13T04:35:14;1.53;;;1.43;;
4409;SDS011;2218;51.408;7.208;2023-10-13T04:37:44;1.20;;;1.10;;
4409;SDS011;2218;51.408;7.208;2023-10-13T04:40:17;1.03;;;0.93;;
4409;SDS011;2218;51.408;7.208;2023-10-13T04:42:50;1.10;;;1.00;;
4409;SDS011;2218;51.408;7.208;2023-10-13T04:45:22;1.10;;;1.00;;
4409;SDS011;2218;51.408;7.208;2023-10-13T04:48:04;1.00;;;1.00;;
4409;SDS011;2218;51.408;7.208;2023-10-13T04:50:58;1.10;;;1.00;;
4409;SDS011;2218;51.408;7.208;2023-10-13T04:53:44;1.20;;;1.10;;
4409;SDS011;2218;51.408;7.208;2023-10-13T04:56:29;0.90;;;0.90;;
4409;SDS011;2218;51.408;7.208;2023-10-13T04:59:16;1.13;;;1.03;;
4409;SDS011;2218;51.408;7.208;2023-10-13T05:01:59;1.00;;;0.90;;
4409;SDS011;2218;51.408;7.208;2023-10-13T05:04:44;0.80;;;0.80;;
4409;SDS011;2218;51.408;7.208;2023-10-13T05:07:30;1.10;;;1.00;;
4409;SDS011;2218;51.408;7.208;2023-10-13T05:10:14;0.90;;;0.90;;
4409;SDS011;2218;51.408;7.208;2023-10-13T05:12:59;1.20;;;1.10;;
4409;SDS011;2218;51.408;7.208;2023-10-13T05:15:44;0.93;;;0.93;;
4409;SDS011;2218;51.408;7.208;2023-10-13T05:18:31;1.13;;;1.03;;
4409;SDS011;2218;51.408;7.208;2023-10-13T05:21:17;1.40;;;1.30;;
4409;SDS011;2218;51.408;7.208;2023-10-13T05:24:04;1.30;;;1.20;;
4409;SDS011;2218;51.408;7.208;2023-10-13T05:26:50;1.00;;;1.00;;
4409;SDS011;2218;51.408;7.208;2023-10-13T05:29:38;1.27;;;1.17;;
4409;SDS011;2218;51.408;7.208;2023-10-13T05:32:23;1.17;;;1.07;;
4409;SDS011;2218;51.408;7.208;2023-10-13T05:35:08;0.90;;;0.90;;
4409;SDS011;2218;51.408;7.208;2023-10-13T05:37:52;0.80;;;0.80;;
4409;SDS011;2218;51.408;7.208;2023-10-13T05:40:38;0.90;;;0.90;;
4409;SDS011;2218;51.408;7.208;2023-10-13T05:43:23;1.13;;;1.03;;
4409;SDS011;2218;51.408;7.208;2023-10-13T05:46:07;1.03;;;1.03;;
4409;SDS011;2218;51.408;7.208;2023-10-13T05:49:11;1.00;;;1.00;;
4409;SDS011;2218;51.408;7.208;2023-10-13T05:52:01;1.13;;;1.03;;
4409;SDS011;2218;51.408;7.208;2023-10-13T05:54:44;0.97;;;0.97;;
4409;SDS011;2218;51.408;7.208;2023-10-13T05:57:31;1.10;;;1.00;;
4409;SDS011;2218;51.408;7.208;2023-10-13T06:00:16;1.43;;;1.27;;
4409;SDS011;2218;51.408;7.208;2023-10-13T06:03:00;1.17;;;1.07;;
4409;SDS011;2218;51.408;7.208;2023-10-13T06:05:45;1.10;;;1.00;;
4409;SDS011;2218;51.408;7.208;2023-10-13T06:08:31;0.90;;;0.90;;
4409;SDS011;2218;51.408;7.208;2023-10-13T06:11:15;1.00;;;1.00;;
4409;SDS011;2218;51.408;7.208;2023-10-13T06:14:01;1.10;;;1.00;;
4409;SDS011;2218;51.408;7.208;2023-10-13T06:16:46;1.00;;;1.00;;
4409;SDS011;2218;51.408;7.208;2023-10-13T06:19:30;1.20;;;1.10;;
4409;SDS011;2218;51.408;7.208;2023-10-13T06:22:15;0.90;;;0.90;;
4409;SDS011;2218;51.408;7.208;2023-10-13T06:24:59;1.20;;;1.10;;
4409;SDS011;2218;51.408;7.208;2023-10-13T06:27:44;1.33;;;1.23;;
4409;SDS011;2218;51.408;7.208;2023-10-13T06:30:29;1.13;;;1.03;;
4409;SDS011;2218;51.408;7.208;2023-10-13T06:32:58;1.13;;;1.07;;
4409;SDS011;2218;51.408;7.208;2023-10-13T06:35:26;1.20;;;1.10;;
4409;SDS011;2218;51.408;7.208;2023-10-13T06:37:54;1.20;;;1.10;;
4409;SDS011;2218;51.408;7.208;2023-10-13T06:40:25;1.20;;;1.10;;
4409;SDS011;2218;51.408;7.208;2023-10-13T06:42:58;1.20;;;1.10;;
4409;SDS011;2218;51.408;7.208;2023-10-13T06:45:41;1.13;;;1.03;;
4409;SDS011;2218;51.408;7.208;2023-10-13T06:48:09;1.20;;;1.10;;
4409;SDS011;2218;51.408;7.208;2023-10-13T06:50:38;1.27;;;1.17;;
4409;SDS011;2218;51.408;7.208;2023-10-13T06:53:07;1.20;;;1.10;;
4409;SDS011;2218;51.408;7.208;2023-10-13T06:55:37;6.33;;;1.27;;
4409;SDS011;2218;51.408;7.208;2023-10-13T06:58:05;0.90;;;0.90;;
4409;SDS011;2218;51.408;7.208;2023-10-13T07:00:32;1.40;;;1.30;;
4409;SDS011;2218;51.408;7.208;2023-10-13T07:03:04;1.37;;;1.27;;
4409;SDS011;2218;51.408;7.208;2023-10-13T07:05:36;0.83;;;0.83;;
4409;SDS011;2218;51.408;7.208;2023-10-13T07:08:04;1.00;;;1.00;;
4409;SDS011;2218;51.408;7.208;2023-10-13T07:10:32;0.90;;;0.90;;
4409;SDS011;2218;51.408;7.208;2023-10-13T07:13:10;0.90;;;0.90;;
4409;SDS011;2218;51.408;7.208;2023-10-13T07:15:38;1.00;;;1.00;;
4409;SDS011;2218;51.408;7.208;2023-10-13T07:18:12;0.90;;;0.90;;
4409;SDS011;2218;51.408;7.208;2023-10-13T07:20:42;1.10;;;1.00;;
4409;SDS011;2218;51.408;7.208;2023-10-13T07:23:12;1.17;;;1.07;;
4409;SDS011;2218;51.408;7.208;2023-10-13T07:25:50;1.07;;;0.97;;
4409;SDS011;2218;51.408;7.208;2023-10-13T07:28:19;0.80;;;0.70;;
4409;SDS011;2218;51.408;7.208;2023-10-13T07:30:47;1.00;;;1.00;;
4409;SDS011;2218;51.408;7.208;2023-10-13T07:33:37;0.70;;;0.70;;
4409;SDS011;2218;51.408;7.208;2023-10-13T07:36:06;1.20;;;1.10;;
4409;SDS011;2218;51.408;7.208;2023-10-13T07:38:43;1.20;;;1.10;;
4409;SDS011;2218;51.408;7.208;2023-10-13T07:41:13;0.97;;;0.97;;
4409;SDS011;2218;51.408;7.208;2023-10-13T07:43:42;1.27;;;1.17;;
4409;SDS011;2218;51.408;7.208;2023-10-13T07:46:11;1.07;;;0.97;;
4409;SDS011;2218;51.408;7.208;2023-10-13T07:48:39;1.10;;;1.00;;
4409;SDS011;2218;51.408;7.208;2023-10-13T07:51:10;1.40;;;1.30;;
4409;SDS011;2218;51.408;7.208;2023-10-13T07:53:41;1.30;;;1.20;;
4409;SDS011;2218;51.408;7.208;2023-10-13T07:56:08;1.20;;;1.10;;
4409;SDS011;2218;51.408;7.208;2023-10-13T07:58:37;1.10;;;1.00;;
4409;SDS011;2218;51.408;7.208;2023-10-13T08:01:17;1.00;;;1.00;;
4409;SDS011;2218;51.408;7.208;2023-10-13T08:03:46;1.27;;;1.17;;
4409;SDS011;2218;51.408;7.208;2023-10-13T08:06:13;1.13;;;1.03;;
4409;SDS011;2218;51.408;7.208;2023-10-13T08:08:53;1.10;;;1.00;;
4409;SDS011;2218;51.408;7.208;2023-10-13T08:11:32;0.87;;;0.87;;
4409;SDS011;2218;51.408;7.208;2023-10-13T08:14:00;0.97;;;0.97;;
4409;SDS011;2218;51.408;7.208;2023-10-13T08:16:37;1.00;;;0.97;;
4409;SDS011;2218;51.408;7.208;2023-10-13T08:19:21;1.20;;;1.10;;
4409;SDS011;2218;51.408;7.208;2023-10-13T08:21:52;1.00;;;0.90;;
4409;SDS011;2218;51.408;7.208;2023-10-13T08:24:24;1.13;;;1.03;;
4409;SDS011;2218;51.408;7.208;2023-10-13T08:26:54;0.80;;;0.80;;
4409;SDS011;2218;51.408;7.208;2023-10-13T08:29:39;0.90;;;0.90;;
4409;SDS011;2218;51.408;7.208;2023-10-13T08:32:23;1.10;;;1.00;;
4409;SDS011;2218;51.408;7.208;2023-10-13T08:35:10;1.47;;;0.90;;
4409;SDS011;2218;51.408;7.208;2023-10-13T08:37:59;1.10;;;1.00;;
4409;SDS011;2218;51.408;7.208;2023-10-13T08:40:40;0.90;;;0.73;;
4409;SDS011;2218;51.408;7.208;2023-10-13T08:43:42;1.13;;;1.03;;
4409;SDS011;2218;51.408;7.208;2023-10-13T08:46:15;0.80;;;0.80;;
4409;SDS011;2218;51.408;7.208;2023-10-13T08:48:55;1.30;;;1.20;;
4409;SDS011;2218;51.408;7.208;2023-10-13T08:51:35;1.23;;;0.77;;
4409;SDS011;2218;51.408;7.208;2023-10-13T08:54:13;1.17;;;1.07;;
4409;SDS011;2218;51.408;7.208;2023-10-13T08:56:45;1.20;;;1.10;;
4409;SDS011;2218;51.408;7.208;2023-10-13T08:59:21;0.90;;;0.90;;
4409;SDS011;2218;51.408;7.208;2023-10-13T09:01:48;1.10;;;1.00;;
4409;SDS011;2218;51.408;7.208;2023-10-13T09:04:25;2.83;;;1.20;;
4409;SDS011;2218;51.408;7.208;2023-10-13T09:07:01;1.00;;;1.00;;
4409;SDS011;2218;51.408;7.208;2023-10-13T09:09:44;1.03;;;0.97;;
4409;SDS011;2218;51.408;7.208;2023-10-13T09:12:57;1.40;;;1.00;;
4409;SDS011;2218;51.408;7.208;2023-10-13T09:15:29;1.67;;;1.40;;
4409;SDS011;2218;51.408;7.208;2023-10-13T09:18:10;0.90;;;0.90;;
4409;SDS011;2218;51.408;7.208;2023-10-13T09:20:40;2.03;;;1.23;;
4409;SDS011;2218;51.408;7.208;2023-10-13T09:23:09;1.27;;;1.17;;
4409;SDS011;2218;51.408;7.208;2023-10-13T09:25:48;1.40;;;1.10;;
4409;SDS011;2218;51.408;7.208;2023-10-13T09:28:23;1.23;;;1.13;;
4409;SDS011;2218;51.408;7.208;2023-10-13T09:30:56;1.10;;;1.00;;
4409;SDS011;2218;51.408;7.208;2023-10-13T09:33:23;1.43;;;1.33;;
4409;SDS011;2218;51.408;7.208;2023-10-13T09:35:57;1.10;;;1.00;;
4409;SDS011;2218;51.408;7.208;2023-10-13T09:38:25;2.50;;;1.03;;
4409;SDS011;2218;51.408;7.208;2023-10-13T09:40:54;1.27;;;1.03;;
4409;SDS011;2218;51.408;7.208;2023-10-13T09:43:22;1.20;;;1.10;;
4409;SDS011;2218;51.408;7.208;2023-10-13T09:45:50;1.93;;;1.00;;
4409;SDS011;2218;51.408;7.208;2023-10-13T09:48:31;1.00;;;0.90;;
4409;SDS011;2218;51.408;7.208;2023-10-13T09:51:00;0.97;;;0.97;;
4409;SDS011;2218;51.408;7.208;2023-10-13T09:53:31;1.03;;;0.97;;
4409;SDS011;2218;51.408;7.208;2023-10-13T09:56:01;1.17;;;1.07;;
4409;SDS011;2218;51.408;7.208;2023-10-13T09:58:39;1.00;;;1.00;;
4409;SDS011;2218;51.408;7.208;2023-10-13T10:01:21;1.30;;;1.20;;
4409;SDS011;2218;51.408;7.208;2023-10-13T10:04:06;0.90;;;0.80;;
4409;SDS011;2218;51.408;7.208;2023-10-13T10:06:34;1.40;;;1.27;;
4409;SDS011;2218;51.408;7.208;2023-10-13T10:09:07;2.20;;;1.23;;
4409;SDS011;2218;51.408;7.208;2023-10-13T10:11:47;1.33;;;1.07;;
4409;SDS011;2218;51.408;7.208;2023-10-13T10:14:36;1.67;;;1.20;;
4409;SDS011;2218;51.408;7.208;2023-10-13T10:17:23;1.17;;;1.10;;
4409;SDS011;2218;51.408;7.208;2023-10-13T10:19:55;1.20;;;1.10;;
4409;SDS011;2218;51.408;7.208;2023-10-13T10:22:27;1.50;;;1.40;;
4409;SDS011;2218;51.408;7.208;2023-10-13T10:25:00;2.20;;;1.10;;
4409;SDS011;2218;51.408;7.208;2023-10-13T10:27:28;1.20;;;1.10;;
4409;SDS011;2218;51.408;7.208;2023-10-13T10:29:57;1.13;;;0.90;;
4409;SDS011;2218;51.408;7.208;2023-10-13T10:32:33;1.07;;;0.97;;
4409;SDS011;2218;51.408;7.208;2023-10-13T10:35:02;1.40;;;1.30;;
4409;SDS011;2218;51.408;7.208;2023-10-13T10:37:34;0.97;;;0.97;;
4409;SDS011;2218;51.408;7.208;2023-10-13T10:40:10;1.20;;;1.10;;
4409;SDS011;2218;51.408;7.208;2023-10-13T10:42:59;1.23;;;1.13;;
4409;SDS011;2218;51.408;7.208;2023-10-13T10:45:28;1.33;;;1.00;;
4409;SDS011;2218;51.408;7.208;2023-10-13T10:47:58;1.40;;;1.30;;
4409;SDS011;2218;51.408;7.208;2023-10-13T10:50:41;1.50;;;1.40;;
4409;SDS011;2218;51.408;7.208;2023-10-13T10:53:09;1.20;;;1.10;;
4409;SDS011;2218;51.408;7.208;2023-10-13T10:55:38;1.30;;;1.20;;
4409;SDS011;2218;51.408;7.208;2023-10-13T10:58:04;1.30;;;1.20;;
4409;SDS011;2218;51.408;7.208;2023-10-13T11:00:32;1.60;;;1.50;;
4409;SDS011;2218;51.408;7.208;2023-10-13T11:03:11;1.30;;;1.03;;
4409;SDS011;2218;51.408;7.208;2023-10-13T11:05:42;1.67;;;1.47;;
4409;SDS011;2218;51.408;7.208;2023-10-13T11:08:20;1.13;;;1.03;;
4409;SDS011;2218;51.408;7.208;2023-10-13T11:10:58;1.50;;;1.27;;
4409;SDS011;2218;51.408;7.208;2023-10-13T11:13:26;1.20;;;1.10;;
4409;SDS011;2218;51.408;7.208;2023-10-13T11:15:56;1.70;;;1.50;;
4409;SDS011;2218;51.408;7.208;2023-10-13T11:18:28;4.33;;;1.20;;
4409;SDS011;2218;51.408;7.208;2023-10-13T11:21:03;1.20;;;1.10;;
4409;SDS011;2218;51.408;7.208;2023-10-13T11:23:32;1.20;;;1.07;;
4409;SDS011;2218;51.408;7.208;2023-10-13T11:26:03;1.30;;;1.20;;
4409;SDS011;2218;51.408;7.208;2023-10-13T11:28:30;1.27;;;1.17;;
4409;SDS011;2218;51.408;7.208;2023-10-13T11:30:59;1.60;;;1.30;;
4409;SDS011;2218;51.408;7.208;2023-10-13T11:33:36;1.33;;;1.23;;
4409;SDS011;2218;51.408;7.208;2023-10-13T11:36:14;1.53;;;1.07;;
4409;SDS011;2218;51.408;7.208;2023-10-13T11:38:42;1.30;;;1.20;;
4409;SDS011;2218;51.408;7.208;2023-10-13T11:41:16;2.17;;;1.20;;
4409;SDS011;2218;51.408;7.208;2023-10-13T11:43:44;1.57;;;1.47;;
4409;SDS011;2218;51.408;7.208;2023-10-13T11:46:23;3.33;;;1.23;;
4409;SDS011;2218;51.408;7.208;2023-10-13T11:49:10;2.33;;;1.10;;
4409;SDS011;2218;51.408;7.208;2023-10-13T11:51:44;3.07;;;1.73;;
4409;SDS011;2218;51.408;7.208;2023-10-13T11:54:12;1.40;;;1.30;;
4409;SDS011;2218;51.408;7.208;2023-10-13T11:56:41;1.40;;;1.30;;
4409;SDS011;2218;51.408;7.208;2023-10-13T11:59:09;1.20;;;1.10;;
4409;SDS011;2218;51.408;7.208;2023-10-13T12:01:43;1.50;;;1.40;;
4409;SDS011;2218;51.408;7.208;2023-10-13T12:04:29;1.90;;;1.80;;
4409;SDS011;2218;51.408;7.208;2023-10-13T12:06:59;1.60;;;1.50;;
4409;SDS011;2218;51.408;7.208;2023-10-13T12:09:40;1.63;;;1.43;;
4409;SDS011;2218;51.408;7.208;2023-10-13T12:12:29;1.20;;;1.10;;
4409;SDS011;2218;51.408;7.208;2023-10-13T12:14:59;1.57;;;1.47;;
4409;SDS011;2218;51.408;7.208;2023-10-13T12:17:34;1.33;;;1.23;;
4409;SDS011;2218;51.408;7.208;2023-10-13T12:20:02;2.30;;;1.20;;
4409;SDS011;2218;51.408;7.208;2023-10-13T12:22:31;1.70;;;1.60;;
4409;SDS011;2218;51.408;7.208;2023-10-13T12:25:04;1.00;;;1.00;;
4409;SDS011;2218;51.408;7.208;2023-10-13T12:27:45;1.40;;;1.30;;
4409;SDS011;2218;51.408;7.208;2023-10-13T12:30:13;1.20;;;1.10;;
4409;SDS011;2218;51.408;7.208;2023-10-13T12:32:47;1.40;;;1.30;;
4409;SDS011;2218;51.408;7.208;2023-10-13T12:35:31;1.20;;;1.10;;
4409;SDS011;2218;51.408;7.208;2023-10-13T12:38:10;1.47;;;1.37;;
4409;SDS011;2218;51.408;7.208;2023-10-13T12:41:04;1.20;;;1.10;;
4409;SDS011;2218;51.408;7.208;2023-10-13T12:43:46;1.57;;;1.43;;
4409;SDS011;2218;51.408;7.208;2023-10-13T12:46:31;1.47;;;1.37;;
4409;SDS011;2218;51.408;7.208;2023-10-13T12:49:15;2.03;;;1.57;;
4409;SDS011;2218;51.408;7.208;2023-10-13T12:52:02;1.70;;;1.60;;
4409;SDS011;2218;51.408;7.208;2023-10-13T12:54:30;2.07;;;1.50;;
4409;SDS011;2218;51.408;7.208;2023-10-13T12:57:01;1.43;;;1.33;;
4409;SDS011;2218;51.408;7.208;2023-10-13T12:59:29;1.53;;;1.43;;
4409;SDS011;2218;51.408;7.208;2023-10-13T13:01:56;1.50;;;1.40;;
4409;SDS011;2218;51.408;7.208;2023-10-13T13:04:23;1.90;;;1.20;;
4409;SDS011;2218;51.408;7.208;2023-10-13T13:06:57;1.20;;;1.10;;
4409;SDS011;2218;51.408;7.208;2023-10-13T13:09:24;1.47;;;1.37;;
4409;SDS011;2218;51.408;7.208;2023-10-13T13:11:51;1.60;;;1.50;;
4409;SDS011;2218;51.408;7.208;2023-10-13T13:14:22;1.77;;;1.40;;
4409;SDS011;2218;51.408;7.208;2023-10-13T13:16:55;2.10;;;1.50;;
4409;SDS011;2218;51.408;7.208;2023-10-13T13:19:29;4.93;;;1.27;;
4409;SDS011;2218;51.408;7.208;2023-10-13T13:22:01;2.50;;;1.63;;
4409;SDS011;2218;51.408;7.208;2023-10-13T13:24:29;1.30;;;1.20;;
4409;SDS011;2218;51.408;7.208;2023-10-13T13:26:56;1.50;;;1.40;;
4409;SDS011;2218;51.408;7.208;2023-10-13T13:29:28;1.57;;;1.30;;
4409;SDS011;2218;51.408;7.208;2023-10-13T13:31:57;2.80;;;1.40;;
4409;SDS011;2218;51.408;7.208;2023-10-13T13:34:25;1.60;;;1.50;;
4409;SDS011;2218;51.408;7.208;2023-10-13T13:36:52;1.60;;;1.50;;
4409;SDS011;2218;51.408;7.208;2023-10-13T13:39:19;1.37;;;1.27;;
4409;SDS011;2218;51.408;7.208;2023-10-13T13:41:54;1.57;;;1.47;;
4409;SDS011;2218;51.408;7.208;2023-10-13T13:44:22;1.50;;;1.40;;
4409;SDS011;2218;51.408;7.208;2023-10-13T13:46:55;1.53;;;1.43;;
4409;SDS011;2218;51.408;7.208;2023-10-13T13:49:23;2.03;;;1.47;;
4409;SDS011;2218;51.408;7.208;2023-10-13T13:52:05;1.40;;;1.30;;
4409;SDS011;2218;51.408;7.208;2023-10-13T13:54:32;1.43;;;1.33;;
4409;SDS011;2218;51.408;7.208;2023-10-13T13:56:59;1.40;;;1.30;;
4409;SDS011;2218;51.408;7.208;2023-10-13T13:59:26;1.57;;;1.47;;
4409;SDS011;2218;51.408;7.208;2023-10-13T14:02:00;1.60;;;1.50;;
4409;SDS011;2218;51.408;7.208;2023-10-13T14:04:32;1.83;;;1.37;;
4409;SDS011;2218;51.408;7.208;2023-10-13T14:06:59;1.70;;;1.60;;
4409;SDS011;2218;51.408;7.208;2023-10-13T14:09:31;1.37;;;1.27;;
4409;SDS011;2218;51.408;7.208;2023-10-13T14:12:01;1.70;;;1.60;;
4409;SDS011;2218;51.408;7.208;2023-10-13T14:14:54;1.30;;;1.20;;
4409;SDS011;2218;51.408;7.208;2023-10-13T14:17:23;2.57;;;1.60;;
4409;SDS011;2218;51.408;7.208;2023-10-13T14:19:54;1.63;;;1.53;;
4409;SDS011;2218;51.408;7.208;2023-10-13T14:22:22;1.30;;;1.20;;
4409;SDS011;2218;51.408;7.208;2023-10-13T14:24:51;1.43;;;1.23;;
4409;SDS011;2218;51.408;7.208;2023-10-13T14:27:20;1.70;;;1.60;;
4409;SDS011;2218;51.408;7.208;2023-10-13T14:29:49;1.93;;;1.70;;
4409;SDS011;2218;51.408;7.208;2023-10-13T14:32:19;1.73;;;1.40;;
4409;SDS011;2218;51.408;7.208;2023-10-13T14:34:51;1.87;;;1.70;;
4409;SDS011;2218;51.408;7.208;2023-10-13T14:37:21;1.47;;;1.33;;
4409;SDS011;2218;51.408;7.208;2023-10-13T14:39:54;1.67;;;1.57;;
4409;SDS011;2218;51.408;7.208;2023-10-13T14:42:22;1.30;;;1.30;;
4409;SDS011;2218;51.408;7.208;2023-10-13T14:44:50;1.57;;;1.47;;
4409;SDS011;2218;51.408;7.208;2023-10-13T14:47:20;1.83;;;1.73;;
4409;SDS011;2218;51.408;7.208;2023-10-13T14:49:51;1.93;;;1.83;;
4409;SDS011;2218;51.408;7.208;2023-10-13T14:52:21;2.17;;;1.97;;
4409;SDS011;2218;51.408;7.208;2023-10-13T14:54:48;2.83;;;1.70;;
4409;SDS011;2218;51.408;7.208;2023-10-13T14:57:20;1.70;;;1.60;;
4409;SDS011;2218;51.408;7.208;2023-10-13T14:59:49;1.80;;;1.70;;
4409;SDS011;2218;51.408;7.208;2023-10-13T15:02:18;2.20;;;1.93;;
4409;SDS011;2218;51.408;7.208;2023-10-13T15:04:46;2.30;;;1.70;;
4409;SDS011;2218;51.408;7.208;2023-10-13T15:07:15;1.83;;;1.73;;
4409;SDS011;2218;51.408;7.208;2023-10-13T15:09:44;2.37;;;1.90;;
4409;SDS011;2218;51.408;7.208;2023-10-13T15:12:11;2.10;;;1.90;;
4409;SDS011;2218;51.408;7.208;2023-10-13T15:14:38;1.80;;;1.70;;
4409;SDS011;2218;51.408;7.208;2023-10-13T15:17:07;2.00;;;1.80;;
4409;SDS011;2218;51.408;7.208;2023-10-13T15:19:35;2.20;;;1.97;;
4409;SDS011;2218;51.408;7.208;2023-10-13T15:22:03;1.73;;;1.63;;
4409;SDS011;2218;51.408;7.208;2023-10-13T15:24:33;1.93;;;1.83;;
4409;SDS011;2218;51.408;7.208;2023-10-13T15:27:08;1.73;;;1.63;;
4409;SDS011;2218;51.408;7.208;2023-10-13T15:29:35;1.70;;;1.60;;
4409;SDS011;2218;51.408;7.208;2023-10-13T15:32:02;2.10;;;2.00;;
4409;SDS011;2218;51.408;7.208;2023-10-13T15:34:46;2.00;;;1.90;;
4409;SDS011;2218;51.408;7.208;2023-10-13T15:37:14;2.20;;;2.10;;
4409;SDS011;2218;51.408;7.208;2023-10-13T15:39:42;1.70;;;1.60;;
4409;SDS011;2218;51.408;7.208;2023-10-13T15:42:09;1.60;;;1.50;;
4409;SDS011;2218;51.408;7.208;2023-10-13T15:44:35;2.20;;;2.00;;
4409;SDS011;2218;51.408;7.208;2023-10-13T15:47:02;1.90;;;1.80;;
4409;SDS011;2218;51.408;7.208;2023-10-13T15:49:29;1.90;;;1.80;;
4409;SDS011;2218;51.408;7.208;2023-10-13T15:51:58;1.73;;;1.63;;
4409;SDS011;2218;51.408;7.208;2023-10-13T15:54:25;1.67;;;1.57;;
4409;SDS011;2218;51.408;7.208;2023-10-13T15:56:54;2.37;;;1.60;;